createdAt,value
2023-01-17T00:00:51.129Z,6.22
2023-01-17T00:03:20.322Z,6.25
2023-01-17T00:06:05.461Z,6.24
2023-01-17T00:08:50.992Z,6.22
2023-01-17T00:11:18.940Z,6.18
2023-01-17T00:13:46.802Z,6.17
2023-01-17T00:16:14.695Z,6.16
2023-01-17T00:19:04.597Z,6.16
2023-01-17T00:21:50.086Z,6.14
2023-01-17T00:24:35.419Z,6.12
2023-01-17T00:27:14.144Z,6.14
2023-01-17T00:29:40.941Z,6.16
2023-01-17T00:32:07.696Z,6.23
2023-01-17T00:34:35.781Z,6.27
2023-01-17T00:37:02.487Z,6.22
2023-01-17T00:39:29.226Z,6.32
2023-01-17T00:41:55.951Z,6.34
2023-01-17T00:44:40.980Z,6.35
2023-01-17T00:47:26.489Z,6.37
2023-01-17T00:50:12.998Z,6.37
2023-01-17T00:52:58.316Z,6.39
2023-01-17T00:55:43.761Z,6.40
2023-01-17T00:58:29.183Z,6.41
2023-01-17T01:01:14.815Z,6.47
2023-01-17T01:04:00.087Z,6.52
2023-01-17T01:06:46.837Z,6.56
2023-01-17T01:09:32.391Z,6.60
2023-01-17T01:12:17.790Z,6.67
2023-01-17T01:15:03.140Z,6.74
2023-01-17T01:17:48.626Z,6.81
2023-01-17T01:20:34.062Z,6.85
2023-01-17T01:23:23.865Z,6.89
2023-01-17T01:26:09.011Z,6.90
2023-01-17T01:28:54.313Z,6.89
2023-01-17T01:31:39.721Z,6.84
2023-01-17T01:34:07.679Z,6.82
2023-01-17T01:36:35.572Z,6.86
2023-01-17T01:39:04.987Z,6.93
2023-01-17T01:41:32.865Z,6.92
2023-01-17T01:44:00.723Z,6.99
2023-01-17T01:46:31.110Z,7.00
2023-01-17T01:49:00.131Z,7.01
2023-01-17T01:51:29.346Z,7.01
2023-01-17T01:53:59.828Z,7.01
2023-01-17T01:56:29.167Z,7.00
2023-01-17T01:58:57.003Z,6.99
2023-01-17T02:01:24.954Z,6.99
2023-01-17T02:03:52.901Z,6.99
2023-01-17T02:06:31.577Z,6.96
2023-01-17T02:09:01.356Z,7.02
2023-01-17T02:11:30.659Z,7.00
2023-01-17T02:13:58.526Z,7.05
2023-01-17T02:16:34.723Z,7.05
2023-01-17T02:19:11.638Z,7.02
2023-01-17T02:21:40.203Z,7.01
2023-01-17T02:24:34.801Z,6.97
2023-01-17T02:27:08.532Z,6.92
2023-01-17T02:30:06.067Z,6.87
2023-01-17T02:32:45.345Z,6.84
2023-01-17T02:35:17.220Z,6.78
2023-01-17T02:37:49.160Z,6.72
2023-01-17T02:40:19.052Z,6.64
2023-01-17T02:42:48.311Z,6.59
2023-01-17T02:45:17.190Z,6.51
2023-01-17T02:47:46.509Z,6.41
2023-01-17T02:50:16.013Z,6.34
2023-01-17T02:52:51.244Z,6.24
2023-01-17T02:55:28.048Z,6.16
2023-01-17T02:58:06.935Z,6.16
2023-01-17T03:00:40.129Z,6.14
2023-01-17T03:03:12.169Z,6.12
2023-01-17T03:05:41.444Z,6.10
2023-01-17T03:08:09.349Z,6.03
2023-01-17T03:10:37.256Z,6.03
2023-01-17T03:13:05.225Z,5.98
2023-01-17T03:15:33.120Z,5.96
2023-01-17T03:18:02.659Z,5.92
2023-01-17T03:20:32.002Z,5.88
2023-01-17T03:22:59.851Z,5.85
2023-01-17T03:25:27.705Z,5.81
2023-01-17T03:27:55.638Z,5.78
2023-01-17T03:30:23.993Z,5.76
2023-01-17T03:32:51.887Z,5.76
2023-01-17T03:35:19.811Z,5.76
2023-01-17T03:37:49.069Z,5.75
2023-01-17T03:40:17.103Z,5.73
2023-01-17T03:42:45.096Z,5.72
2023-01-17T03:45:13.039Z,5.73
2023-01-17T03:47:40.910Z,5.72
2023-01-17T03:50:09.949Z,5.72
2023-01-17T03:52:37.861Z,5.75
2023-01-17T03:55:08.336Z,5.74
2023-01-17T03:57:36.176Z,5.74
2023-01-17T04:00:04.287Z,5.72
2023-01-17T04:02:32.187Z,5.71
2023-01-17T04:05:00.090Z,5.70
2023-01-17T04:07:28.085Z,5.73
2023-01-17T04:09:55.940Z,5.72
2023-01-17T04:12:25.176Z,5.75
2023-01-17T04:14:53.038Z,5.74
2023-01-17T04:17:20.929Z,5.73
2023-01-17T04:19:48.741Z,5.71
2023-01-17T04:22:16.605Z,5.74
2023-01-17T04:24:44.527Z,5.74
2023-01-17T04:27:16.030Z,5.78
2023-01-17T04:29:46.754Z,5.83
2023-01-17T04:32:14.777Z,5.90
2023-01-17T04:34:42.756Z,5.97
2023-01-17T04:37:10.666Z,6.00
2023-01-17T04:39:38.576Z,6.04
2023-01-17T04:42:06.661Z,6.02
2023-01-17T04:44:34.532Z,6.02
2023-01-17T04:47:03.846Z,5.99
2023-01-17T04:49:31.734Z,5.95
2023-01-17T04:51:59.601Z,5.91
2023-01-17T04:54:27.476Z,5.88
2023-01-17T04:56:55.375Z,5.85
2023-01-17T04:59:23.264Z,5.77
2023-01-17T05:01:51.211Z,5.74
2023-01-17T05:04:20.534Z,5.70
2023-01-17T05:06:48.421Z,5.64
2023-01-17T05:09:16.330Z,5.59
2023-01-17T05:11:44.229Z,5.54
2023-01-17T05:14:12.262Z,5.49
2023-01-17T05:16:40.208Z,5.45
2023-01-17T05:19:08.154Z,5.41
2023-01-17T05:21:37.449Z,5.43
2023-01-17T05:24:05.803Z,5.50
2023-01-17T05:26:33.692Z,5.57
2023-01-17T05:29:01.551Z,5.64
2023-01-17T05:31:29.423Z,5.68
2023-01-17T05:33:57.363Z,5.80
2023-01-17T05:36:25.200Z,5.88
2023-01-17T05:38:54.405Z,5.97
2023-01-17T05:41:22.354Z,5.99
2023-01-17T05:43:50.225Z,5.99
2023-01-17T05:46:18.332Z,6.04
2023-01-17T05:48:46.247Z,6.07
2023-01-17T05:51:14.126Z,6.12
2023-01-17T05:53:41.989Z,6.15
2023-01-17T05:56:11.288Z,6.18
2023-01-17T05:58:40.115Z,6.22
2023-01-17T06:01:08.086Z,6.25
2023-01-17T06:03:36.259Z,6.26
2023-01-17T06:06:04.082Z,6.24
2023-01-17T06:08:34.773Z,6.22
2023-01-17T06:11:02.694Z,6.16
2023-01-17T06:13:32.626Z,6.11
2023-01-17T06:16:03.964Z,6.07
2023-01-17T06:18:32.386Z,6.04
2023-01-17T06:21:00.280Z,6.05
2023-01-17T06:23:28.459Z,6.03
2023-01-17T06:25:56.391Z,6.08
2023-01-17T06:28:26.059Z,6.01
2023-01-17T06:30:55.370Z,6.08
2023-01-17T06:33:23.273Z,6.06
2023-01-17T06:35:51.245Z,6.05
2023-01-17T06:38:19.236Z,6.05
2023-01-17T06:40:47.111Z,6.04
2023-01-17T06:43:15.005Z,6.05
2023-01-17T06:45:42.901Z,6.04
2023-01-17T06:48:12.192Z,6.05
2023-01-17T06:50:40.134Z,6.05
2023-01-17T06:53:08.202Z,6.07
2023-01-17T06:55:36.481Z,6.04
2023-01-17T06:58:04.702Z,6.04
2023-01-17T07:00:35.063Z,6.02
2023-01-17T07:03:03.174Z,6.04
2023-01-17T07:05:32.886Z,6.04
2023-01-17T07:08:00.832Z,6.02
2023-01-17T07:10:28.735Z,6.00
2023-01-17T07:13:00.507Z,6.00
2023-01-17T07:15:28.388Z,5.99
2023-01-17T07:17:56.351Z,5.96
2023-01-17T07:20:24.458Z,5.97
2023-01-17T07:22:53.660Z,5.97
2023-01-17T07:25:21.519Z,5.94
2023-01-17T07:27:49.579Z,5.90
2023-01-17T07:30:18.025Z,5.89
2023-01-17T07:32:45.930Z,5.83
2023-01-17T07:35:13.866Z,5.79
2023-01-17T07:37:41.847Z,5.73
2023-01-17T07:40:12.704Z,5.72
2023-01-17T07:42:40.755Z,5.66
2023-01-17T07:45:10.035Z,5.68
2023-01-17T07:47:38.000Z,5.67
2023-01-17T07:50:06.478Z,5.69
2023-01-17T07:52:34.402Z,5.64
2023-01-17T07:55:02.449Z,5.58
2023-01-17T07:57:32.601Z,5.54
2023-01-17T08:00:00.676Z,5.50
2023-01-17T08:02:28.678Z,5.52
2023-01-17T08:04:56.717Z,5.51
2023-01-17T08:07:24.799Z,5.50
2023-01-17T08:09:54.234Z,5.47
2023-01-17T08:12:22.276Z,5.42
2023-01-17T08:14:51.715Z,5.45
2023-01-17T08:17:20.491Z,5.44
2023-01-17T08:19:50.065Z,5.45
2023-01-17T08:22:17.950Z,5.47
2023-01-17T08:24:45.865Z,5.49
2023-01-17T08:27:13.875Z,5.50
2023-01-17T08:29:46.933Z,5.49
2023-01-17T08:32:16.277Z,5.50
2023-01-17T08:34:44.134Z,5.53
2023-01-17T08:37:12.149Z,5.49
2023-01-17T08:39:40.302Z,5.58
2023-01-17T08:42:08.196Z,5.59
2023-01-17T08:44:36.396Z,5.61
2023-01-17T08:47:04.475Z,5.51
2023-01-17T08:49:33.767Z,5.55
2023-01-17T08:52:01.777Z,5.52
2023-01-17T08:54:29.930Z,5.54
2023-01-17T08:56:57.835Z,5.55
2023-01-17T08:59:27.767Z,5.52
2023-01-17T09:01:58.295Z,5.59
2023-01-17T09:04:26.567Z,5.60
2023-01-17T09:06:55.904Z,5.62
2023-01-17T09:09:23.882Z,5.65
2023-01-17T09:11:51.769Z,5.66
2023-01-17T09:14:19.650Z,5.69
2023-01-17T09:16:48.601Z,5.69
2023-01-17T09:19:16.618Z,5.65
2023-01-17T09:21:44.501Z,5.71
2023-01-17T09:24:13.816Z,5.82
2023-01-17T09:26:41.686Z,5.91
2023-01-17T09:29:09.614Z,6.00
2023-01-17T09:31:37.493Z,6.06
2023-01-17T09:34:05.543Z,6.16
2023-01-17T09:36:34.029Z,6.25
2023-01-17T09:39:02.129Z,6.28
2023-01-17T09:41:32.142Z,6.29
2023-01-17T09:44:05.711Z,6.26
2023-01-17T09:46:34.922Z,6.25
2023-01-17T09:49:05.950Z,6.27
2023-01-17T09:51:34.020Z,6.31
2023-01-17T09:54:02.739Z,6.37
2023-01-17T09:56:33.567Z,6.45
2023-01-17T09:59:18.560Z,6.50
2023-01-17T10:01:50.172Z,6.54
2023-01-17T10:04:25.560Z,6.60
2023-01-17T10:06:59.584Z,6.65
2023-01-17T10:09:45.685Z,6.75
2023-01-17T10:12:21.981Z,6.82
2023-01-17T10:15:03.166Z,6.87
2023-01-17T10:17:37.407Z,6.92
2023-01-17T10:20:13.628Z,7.01
2023-01-17T10:23:00.852Z,7.04
2023-01-17T10:25:49.399Z,7.09
2023-01-17T10:28:20.321Z,7.17
2023-01-17T10:30:49.999Z,7.16
2023-01-17T10:33:20.502Z,7.32
2023-01-17T10:35:55.234Z,7.44
2023-01-17T10:38:24.314Z,7.58
2023-01-17T10:40:54.873Z,7.73
2023-01-17T10:43:27.948Z,7.82
2023-01-17T10:48:38.884Z,8.24
2023-01-17T10:51:50.524Z,8.60
2023-01-17T10:54:25.360Z,9.06
2023-01-17T10:56:53.276Z,9.42
2023-01-17T10:59:28.554Z,9.60
2023-01-17T11:01:56.538Z,9.50
2023-01-17T11:04:25.547Z,9.41
2023-01-17T11:07:13.774Z,9.58
2023-01-17T11:09:42.307Z,9.89
2023-01-17T11:12:18.774Z,10.21
2023-01-17T11:14:54.701Z,10.51
2023-01-17T11:17:22.772Z,10.78
2023-01-17T11:19:51.346Z,11.14
2023-01-17T11:22:19.275Z,11.25
2023-01-17T11:24:50.139Z,11.06
2023-01-17T11:27:25.417Z,11.07
2023-01-17T11:30:09.248Z,11.37
2023-01-17T11:32:37.542Z,11.69
2023-01-17T11:35:16.323Z,12.05
2023-01-17T11:37:51.734Z,12.25
2023-01-17T11:40:25.539Z,12.51
2023-01-17T11:43:22.184Z,12.61
2023-01-17T11:46:06.563Z,12.50
2023-01-17T11:48:36.230Z,12.47
2023-01-17T11:51:04.177Z,12.48
2023-01-17T11:53:33.185Z,12.51
2023-01-17T11:56:05.190Z,12.40
2023-01-17T11:58:33.666Z,12.12
2023-01-17T12:01:07.810Z,12.07
2023-01-17T12:03:56.073Z,11.48
2023-01-17T12:06:27.124Z,11.42
2023-01-17T12:09:03.145Z,11.66
2023-01-17T12:11:35.993Z,11.90
2023-01-17T12:14:07.280Z,12.20
2023-01-17T12:16:53.481Z,12.57
2023-01-17T12:19:34.690Z,12.84
2023-01-17T12:22:13.579Z,13.20
2023-01-17T12:25:08.581Z,13.66
2023-01-17T12:27:42.553Z,14.14
2023-01-17T12:30:30.863Z,14.61
2023-01-17T12:33:15.738Z,15.18
2023-01-17T12:35:44.536Z,15.47
2023-01-17T12:38:27.475Z,15.68
2023-01-17T12:41:02.270Z,16.10
2023-01-17T12:43:32.206Z,16.42
2023-01-17T12:46:00.192Z,16.57
2023-01-17T12:48:30.846Z,16.59
2023-01-17T12:51:01.446Z,16.60
2023-01-17T12:53:32.647Z,16.43
2023-01-17T12:56:02.750Z,16.28
2023-01-17T12:58:34.971Z,16.29
2023-01-17T13:01:05.685Z,16.36
2023-01-17T13:03:42.622Z,16.23
2023-01-17T13:06:11.768Z,16.02
2023-01-17T13:08:41.906Z,15.67
2023-01-17T13:11:12.022Z,15.39
2023-01-17T13:13:41.262Z,15.36
2023-01-17T13:16:13.519Z,15.33
2023-01-17T13:18:45.181Z,15.22
2023-01-17T13:21:27.466Z,14.89
2023-01-17T13:24:15.187Z,14.47
2023-01-17T13:26:51.042Z,14.34
2023-01-17T13:29:24.035Z,14.52
2023-01-17T13:31:54.786Z,14.70
2023-01-17T13:34:32.662Z,14.84
2023-01-17T13:37:09.046Z,14.92
2023-01-17T13:39:47.235Z,15.11
2023-01-17T13:42:19.842Z,15.41
2023-01-17T13:44:47.829Z,15.70
2023-01-17T13:47:41.559Z,15.83
2023-01-17T13:50:42.849Z,15.99
2023-01-17T13:53:56.834Z,16.31
2023-01-17T13:56:36.308Z,16.59
2023-01-17T13:59:19.778Z,16.75
2023-01-17T14:01:53.903Z,16.96
2023-01-17T14:04:22.883Z,17.19
2023-01-17T14:06:59.484Z,17.08
2023-01-17T14:09:29.260Z,16.79
2023-01-17T14:12:01.088Z,16.35
2023-01-17T14:14:46.615Z,15.92
2023-01-17T14:17:29.257Z,15.62
2023-01-17T14:20:00.252Z,15.45
2023-01-17T14:22:28.825Z,15.02
2023-01-17T14:24:59.197Z,14.38
2023-01-17T14:27:28.635Z,14.23
2023-01-17T14:29:58.944Z,14.21
2023-01-17T14:32:28.660Z,13.44
2023-01-17T14:34:57.366Z,13.37
2023-01-17T14:37:39.241Z,13.76
2023-01-17T14:40:18.965Z,14.17
2023-01-17T14:42:48.643Z,14.43
2023-01-17T14:45:27.765Z,14.61
2023-01-17T14:47:56.710Z,14.72
2023-01-17T14:50:25.804Z,14.65
2023-01-17T14:53:09.324Z,14.77
2023-01-17T14:55:37.212Z,14.83
2023-01-17T14:58:06.476Z,14.71
2023-01-17T15:00:40.813Z,14.36
2023-01-17T15:03:11.496Z,13.80
2023-01-17T15:05:40.913Z,13.43
2023-01-17T15:08:12.273Z,13.33
2023-01-17T15:10:47.931Z,13.16
2023-01-17T15:13:26.027Z,12.75
2023-01-17T15:16:04.874Z,12.30
2023-01-17T15:18:40.008Z,11.90
2023-01-17T15:21:11.558Z,11.59
2023-01-17T15:23:40.420Z,11.36
2023-01-17T15:26:09.268Z,11.14
2023-01-17T15:28:38.681Z,10.99
2023-01-17T15:31:17.053Z,10.95
2023-01-17T15:33:46.813Z,10.96
2023-01-17T15:36:26.578Z,10.99
2023-01-17T15:38:58.174Z,10.89
2023-01-17T15:41:26.599Z,10.92
2023-01-17T15:43:58.626Z,10.82
2023-01-17T15:46:32.405Z,10.70
2023-01-17T15:49:17.499Z,10.58
2023-01-17T15:51:51.895Z,10.45
2023-01-17T15:54:37.802Z,10.34
2023-01-17T15:57:11.146Z,10.29
2023-01-17T15:59:45.849Z,10.27
2023-01-17T16:02:26.055Z,10.31
2023-01-17T16:04:54.328Z,10.17
2023-01-17T16:07:23.355Z,9.95
2023-01-17T16:09:51.354Z,9.72
2023-01-17T16:12:19.274Z,9.65
2023-01-17T16:15:02.763Z,9.53
2023-01-17T16:17:34.361Z,9.36
2023-01-17T16:20:02.337Z,9.27
2023-01-17T16:22:30.310Z,9.14
2023-01-17T16:24:58.953Z,9.06
2023-01-17T16:27:26.844Z,8.96
2023-01-17T16:29:56.518Z,8.86
2023-01-17T16:32:25.499Z,8.66
2023-01-17T16:34:53.493Z,8.67
2023-01-17T16:37:22.190Z,8.60
2023-01-17T16:39:50.103Z,8.42
2023-01-17T16:42:18.029Z,8.54
2023-01-17T16:44:45.900Z,8.44
2023-01-17T16:47:15.202Z,8.38
2023-01-17T16:49:43.088Z,8.43
2023-01-17T16:52:10.926Z,8.42
2023-01-17T16:54:38.765Z,8.40
2023-01-17T16:57:06.661Z,8.37
2023-01-17T16:59:49.803Z,8.28
2023-01-17T17:02:19.924Z,8.27
2023-01-17T17:04:49.054Z,8.28
2023-01-17T17:07:16.973Z,8.29
2023-01-17T17:09:44.858Z,8.27
2023-01-17T17:12:12.729Z,8.26
2023-01-17T17:14:41.124Z,8.23
2023-01-17T17:17:09.054Z,8.20
2023-01-17T17:19:38.363Z,8.18
2023-01-17T17:22:07.140Z,8.17
2023-01-17T17:24:35.029Z,8.15
2023-01-17T17:27:03.787Z,8.17
2023-01-17T17:29:31.667Z,8.19
2023-01-17T17:31:59.632Z,8.24
2023-01-17T17:34:28.284Z,8.32
2023-01-17T17:36:57.863Z,8.45
2023-01-17T17:39:25.793Z,8.55
2023-01-17T17:41:53.818Z,8.62
2023-01-17T17:44:21.698Z,8.70
2023-01-17T17:46:51.406Z,8.72
2023-01-17T17:49:20.407Z,8.77
2023-01-17T17:51:48.421Z,8.82
2023-01-17T17:54:18.038Z,8.89
2023-01-17T17:56:47.353Z,8.91
2023-01-17T17:59:18.306Z,8.96
2023-01-17T18:01:46.281Z,8.78
2023-01-17T18:04:15.407Z,8.99
2023-01-17T18:06:43.439Z,9.02
2023-01-17T18:09:12.203Z,9.01
2023-01-17T18:11:42.195Z,8.97
2023-01-17T18:14:11.668Z,8.97
2023-01-17T18:16:41.735Z,8.96
2023-01-17T18:19:10.179Z,8.95
2023-01-17T18:21:38.744Z,8.99
2023-01-17T18:24:08.247Z,9.01
2023-01-17T18:26:37.010Z,9.04
2023-01-17T18:29:06.980Z,9.04
2023-01-17T18:31:35.017Z,9.00
2023-01-17T18:34:05.689Z,8.95
2023-01-17T18:36:34.725Z,8.88
2023-01-17T18:39:02.985Z,8.85
2023-01-17T18:41:31.579Z,8.82
2023-01-17T18:43:59.471Z,8.78
2023-01-17T18:46:28.744Z,8.77
2023-01-17T18:48:56.871Z,8.75
2023-01-17T18:51:24.834Z,8.72
2023-01-17T18:53:54.048Z,8.70
2023-01-17T18:56:22.750Z,8.71
2023-01-17T18:58:51.207Z,8.70
2023-01-17T19:01:20.404Z,8.72
2023-01-17T19:03:50.848Z,8.74
2023-01-17T19:06:19.731Z,8.72
2023-01-17T19:08:48.493Z,8.72
2023-01-17T19:11:16.479Z,8.72
2023-01-17T19:13:44.382Z,8.70
2023-01-17T19:16:15.584Z,8.70
2023-01-17T19:18:43.582Z,8.70
2023-01-17T19:21:13.782Z,8.68
2023-01-17T19:23:41.736Z,8.70
2023-01-17T19:26:09.767Z,8.72
2023-01-17T19:28:38.685Z,8.76
2023-01-17T19:31:07.315Z,8.80
2023-01-17T19:33:35.882Z,8.83
2023-01-17T19:36:05.772Z,8.85
2023-01-17T19:38:35.395Z,8.87
2023-01-17T19:41:09.004Z,8.91
2023-01-17T19:43:37.002Z,8.91
2023-01-17T19:46:05.420Z,8.91
2023-01-17T19:48:33.348Z,8.92
2023-01-17T19:51:05.071Z,8.91
2023-01-17T19:53:35.839Z,8.92
2023-01-17T19:56:06.938Z,8.90
2023-01-17T19:58:35.261Z,8.89
2023-01-17T20:01:07.553Z,8.86
2023-01-17T20:03:35.565Z,8.85
2023-01-17T20:06:03.450Z,8.82
2023-01-17T20:08:31.857Z,8.82
2023-01-17T20:11:04.879Z,8.82
2023-01-17T20:13:32.815Z,8.79
2023-01-17T20:16:03.750Z,8.79
2023-01-17T20:18:32.241Z,8.76
2023-01-17T20:21:03.476Z,8.73
2023-01-17T20:23:35.232Z,8.73
2023-01-17T20:26:04.695Z,8.72
2023-01-17T20:28:32.919Z,8.69
2023-01-17T20:31:05.694Z,8.68
2023-01-17T20:33:33.574Z,8.64
2023-01-17T20:36:10.119Z,8.63
2023-01-17T20:38:44.630Z,8.61
2023-01-17T20:41:15.243Z,8.69
2023-01-17T20:43:43.582Z,8.69
2023-01-17T20:46:11.630Z,8.67
2023-01-17T20:48:44.888Z,8.68
2023-01-17T20:51:12.818Z,8.66
2023-01-17T20:53:41.619Z,8.66
2023-01-17T20:56:09.837Z,8.62
2023-01-17T20:58:39.449Z,8.62
2023-01-17T21:01:07.570Z,8.57
2023-01-17T21:03:36.044Z,8.59
2023-01-17T21:06:05.032Z,8.61
2023-01-17T21:08:33.336Z,8.62
2023-01-17T21:11:01.298Z,8.67
2023-01-17T21:13:29.217Z,8.68
2023-01-17T21:15:58.599Z,8.72
2023-01-17T21:18:26.631Z,8.73
2023-01-17T21:20:54.621Z,8.80
2023-01-17T21:23:29.270Z,8.80
2023-01-17T21:25:57.947Z,8.82
2023-01-17T21:28:26.939Z,8.81
2023-01-17T21:30:54.929Z,8.81
2023-01-17T21:33:24.913Z,8.79
2023-01-17T21:35:54.314Z,8.78
2023-01-17T21:38:22.225Z,8.75
2023-01-17T21:40:50.443Z,8.76
2023-01-17T21:43:18.315Z,8.76
2023-01-17T21:45:46.303Z,8.79
2023-01-17T21:48:14.680Z,8.84
2023-01-17T21:50:45.192Z,8.88
2023-01-17T21:53:14.096Z,8.92
2023-01-17T21:55:59.404Z,8.95
2023-01-17T21:58:45.609Z,8.95
2023-01-17T22:01:21.606Z,8.98
2023-01-17T22:03:50.544Z,9.02
2023-01-17T22:06:19.999Z,9.06
2023-01-17T22:08:47.965Z,9.08
2023-01-17T22:11:16.843Z,9.09
2023-01-17T22:13:45.129Z,9.06
2023-01-17T22:16:13.693Z,9.01
2023-01-17T22:18:42.379Z,8.94
2023-01-17T22:21:12.024Z,9.00
2023-01-17T22:23:41.798Z,9.03
2023-01-17T22:26:10.517Z,9.04
2023-01-17T22:28:38.536Z,9.03
2023-01-17T22:31:10.763Z,9.03
2023-01-17T22:33:39.025Z,9.06
2023-01-17T22:36:07.615Z,9.07
2023-01-17T22:38:35.613Z,9.08
2023-01-17T22:41:08.018Z,9.09
2023-01-17T22:43:37.305Z,9.07
2023-01-17T22:46:05.795Z,9.02
2023-01-17T22:48:33.980Z,9.02
2023-01-17T22:51:02.464Z,9.01
2023-01-17T22:53:30.419Z,8.99
2023-01-17T22:56:02.871Z,8.96
2023-01-17T22:58:32.177Z,8.95
2023-01-17T23:01:05.459Z,8.94
2023-01-17T23:03:33.477Z,8.92
2023-01-17T23:06:11.575Z,8.87
2023-01-17T23:08:40.283Z,8.86
2023-01-17T23:11:32.999Z,8.81
2023-01-17T23:14:02.262Z,8.82
2023-01-17T23:16:47.577Z,8.79
2023-01-17T23:19:24.503Z,8.77
2023-01-17T23:22:10.091Z,8.71
2023-01-17T23:24:39.568Z,8.70
2023-01-17T23:27:24.653Z,8.71
2023-01-17T23:29:53.923Z,8.68
2023-01-17T23:32:21.848Z,8.68
2023-01-17T23:34:49.905Z,8.64
2023-01-17T23:37:17.803Z,8.61
2023-01-17T23:39:45.689Z,8.60
2023-01-17T23:42:31.130Z,8.61
2023-01-17T23:45:00.418Z,8.57
2023-01-17T23:47:28.312Z,8.59
2023-01-17T23:49:56.210Z,8.58
2023-01-17T23:52:24.150Z,8.58
2023-01-17T23:54:52.146Z,8.61
2023-01-17T23:57:20.036Z,8.60
2023-01-17T23:59:47.964Z,8.58
